| time (UTC) | temp C | wind direction | speed KPH | gust KPH | rain 1hr cm | rain 24hr cm | rain mn cm | humidity % | barometer mb |
| 20260507162527 | 17 | 201 | 4.8 | 8.0 | 0.00 | 1.12 | 1.12 | 79 | 1014.1 |
| 20260507162024 | 17 | 178 | 1.6 | 3.2 | 0.00 | 1.12 | 1.12 | 79 | 1014.3 |
| 20260507161520 | 17 | 147 | 1.6 | 3.2 | 0.00 | 1.12 | 1.12 | 78 | 1014.1 |
| 20260507161017 | 17 | 161 | 1.6 | 1.6 | 0.00 | 1.12 | 1.12 | 78 | 1014.0 |
| 20260507160513 | 18 | 149 | 1.6 | 4.8 | 0.00 | 1.12 | 1.12 | 77 | 1014.1 |
| 20260507160010 | 18 | 184 | 1.6 | 3.2 | 0.00 | 1.12 | 1.12 | 77 | 1014.0 |
| 20260507155505 | 18 | 160 | 1.6 | 3.2 | 0.00 | 1.12 | 1.12 | 77 | 1014.2 |
| 20260507155003 | 18 | 189 | 3.2 | 3.2 | 0.00 | 1.12 | 1.12 | 76 | 1014.2 |
| 20260507154459 | 18 | 174 | 0.0 | 0.0 | 0.00 | 1.12 | 1.12 | 76 | 1014.2 |
| 20260507153956 | 18 | 201 | 4.8 | 8.0 | 0.00 | 1.12 | 1.12 | 76 | 1014.3 |
| 20260507153453 | 18 | 186 | 3.2 | 4.8 | 0.00 | 1.12 | 1.12 | 76 | 1014.3 |
| 20260507152949 | 18 | 187 | 0.0 | 0.0 | 0.00 | 1.12 | 1.12 | 75 | 1014.0 |
| 20260507152445 | 18 | 196 | 0.0 | 1.6 | 0.00 | 1.12 | 1.12 | 76 | 1014.0 |
| 20260507151941 | 18 | 192 | 1.6 | 1.6 | 0.00 | 1.12 | 1.12 | 73 | 1014.1 |
| 20260507151438 | 20 | 180 | 0.0 | 0.0 | 0.00 | 1.12 | 1.12 | 70 | 1014.1 |
| 20260507150935 | 20 | 196 | 0.0 | 0.0 | 0.00 | 1.12 | 1.12 | 71 | 1014.1 |
| 20260507150432 | 20 | 195 | 0.0 | 0.0 | 0.00 | 1.12 | 1.12 | 69 | 1014.2 |
| 20260507145928 | 20 | 197 | 0.0 | 0.0 | 0.00 | 1.12 | 1.12 | 67 | 1014.1 |
| 20260507145424 | 21 | 213 | 0.0 | 0.0 | 0.00 | 1.12 | 1.12 | 65 | 1014.3 |
| 20260507144921 | 21 | 163 | 1.6 | 3.2 | 0.00 | 1.12 | 1.12 | 66 | 1014.4 |
| 20260507144418 | 20 | 193 | 0.0 | 1.6 | 0.00 | 1.12 | 1.12 | 67 | 1014.4 |
| 20260507143915 | 20 | 186 | 0.0 | 0.0 | 0.00 | 1.12 | 1.12 | 69 | 1014.4 |
| 20260507143412 | 20 | 181 | 3.2 | 3.2 | 0.00 | 1.12 | 1.12 | 69 | 1014.2 |
| 20260507142909 | 20 | 195 | 0.0 | 1.6 | 0.00 | 1.12 | 1.12 | 69 | 1014.3 |
| 20260507142404 | 19 | 182 | 1.6 | 1.6 | 0.00 | 1.12 | 1.12 | 71 | 1014.3 |
| 20260507141902 | 20 | 131 | 4.8 | 8.0 | 0.00 | 1.12 | 1.12 | 69 | 1014.4 |
| 20260507141358 | 20 | 200 | 1.6 | 1.6 | 0.00 | 1.12 | 1.12 | 71 | 1014.2 |
| 20260507140855 | 19 | 188 | 0.0 | 0.0 | 0.00 | 1.12 | 1.12 | 71 | 1014.2 |
| 20260507140351 | 20 | 167 | 3.2 | 8.0 | 0.00 | 1.12 | 1.12 | 69 | 1014.1 |
| 20260507135849 | 21 | 185 | 1.6 | 1.6 | 0.00 | 1.12 | 1.12 | 65 | 1014.1 |
| 20260507135346 | 21 | 207 | 0.0 | 1.6 | 0.00 | 1.12 | 1.12 | 67 | 1014.2 |
| 20260507134843 | 20 | 209 | 0.0 | 0.0 | 0.00 | 1.12 | 1.12 | 71 | 1014.0 |
| 20260507134339 | 20 | 197 | 0.0 | 0.0 | 0.00 | 1.12 | 1.12 | 71 | 1014.2 |
| 20260507133835 | 19 | 140 | 4.8 | 8.0 | 0.00 | 1.12 | 1.12 | 73 | 1014.3 |
| 20260507133331 | 18 | 164 | 0.0 | 1.6 | 0.00 | 1.12 | 1.12 | 74 | 1014.2 |
| 20260507132830 | 17 | 183 | 0.0 | 0.0 | 0.00 | 1.12 | 1.12 | 79 | 1014.4 |
| 20260507132326 | 17 | 186 | 1.6 | 3.2 | 0.00 | 1.12 | 1.12 | 79 | 1014.4 |
| 20260507131823 | 17 | 125 | 3.2 | 8.0 | 0.00 | 1.12 | 1.12 | 79 | 1014.1 |
| 20260507131320 | 17 | 200 | 1.6 | 1.6 | 0.00 | 1.12 | 1.12 | 78 | 1014.3 |
| 20260507130817 | 17 | 152 | 0.0 | 1.6 | 0.00 | 1.12 | 1.12 | 79 | 1014.4 |
| 20260507130314 | 17 | 198 | 1.6 | 4.8 | 0.00 | 1.12 | 1.12 | 77 | 1014.4 |
| 20260507125813 | 17 | 186 | 1.6 | 3.2 | 0.00 | 1.12 | 1.12 | 76 | 1014.4 |
| 20260507125310 | 18 | 160 | 4.8 | 8.0 | 0.00 | 1.12 | 1.12 | 75 | 1014.4 |
| 20260507124807 | 18 | 162 | 3.2 | 3.2 | 0.00 | 1.12 | 1.12 | 75 | 1014.5 |
| 20260507124303 | 17 | 160 | 11.3 | 16.1 | 0.00 | 1.12 | 1.12 | 76 | 1014.4 |
| 20260507123802 | 17 | 161 | 1.6 | 4.8 | 0.00 | 1.12 | 1.12 | 77 | 1014.5 |
| 20260507123259 | 17 | 214 | 8.0 | 11.3 | 0.00 | 1.12 | 1.12 | 80 | 1014.2 |
| 20260507122754 | 16 | 155 | 3.2 | 8.0 | 0.00 | 1.12 | 1.12 | 80 | 1014.4 |
| 20260507122250 | 17 | 180 | 4.8 | 8.0 | 0.00 | 1.12 | 1.12 | 80 | 1014.2 |
| 20260507121746 | 17 | 169 | 4.8 | 9.7 | 0.00 | 1.12 | 1.12 | 78 | 1014.5 |
| 20260507121242 | 17 | 205 | 6.4 | 9.7 | 0.00 | 1.12 | 1.12 | 78 | 1014.6 |
| 20260507120738 | 17 | 178 | 3.2 | 8.0 | 0.00 | 1.12 | 1.12 | 78 | 1014.5 |
| 20260507120235 | 17 | 161 | 3.2 | 4.8 | 0.00 | 1.12 | 1.12 | 79 | 1014.6 |
| 20260507115731 | 17 | 184 | 3.2 | 4.8 | 0.00 | 1.12 | 1.12 | 80 | 1014.6 |
| 20260507115222 | 16 | 141 | 6.4 | 9.7 | 0.00 | 1.12 | 1.12 | 83 | 1014.5 |
| 20260507114717 | 16 | 126 | 8.0 | 12.9 | 0.00 | 1.12 | 1.12 | 82 | 1014.5 |
| 20260507114215 | 16 | 159 | 4.8 | 8.0 | 0.00 | 1.12 | 1.12 | 83 | 1014.6 |
| 20260507113712 | 16 | 141 | 4.8 | 12.9 | 0.00 | 1.12 | 1.12 | 82 | 1014.6 |
| 20260507113209 | 16 | 148 | 1.6 | 3.2 | 0.00 | 1.12 | 1.12 | 81 | 1014.7 |
| 20260507112707 | 17 | 177 | 8.0 | 11.3 | 0.00 | 1.12 | 1.12 | 79 | 1014.5 |
| 20260507112203 | 17 | 150 | 6.4 | 9.7 | 0.00 | 1.12 | 1.12 | 79 | 1014.5 |
| 20260507111701 | 17 | 240 | 8.0 | 11.3 | 0.00 | 1.12 | 1.12 | 81 | 1014.5 |
| 20260507111158 | 17 | 162 | 1.6 | 3.2 | 0.00 | 1.12 | 1.12 | 82 | 1014.4 |
| 20260507110653 | 16 | 136 | 1.6 | 8.0 | 0.00 | 1.12 | 1.12 | 83 | 1014.6 |
| 20260507110151 | 17 | 156 | 9.7 | 14.5 | 0.00 | 1.12 | 1.12 | 81 | 1014.5 |
| 20260507105647 | 16 | 197 | 3.2 | 3.2 | 0.00 | 1.12 | 1.12 | 84 | 1014.6 |
| 20260507105143 | 16 | 132 | 4.8 | 9.7 | 0.00 | 1.12 | 1.12 | 83 | 1014.6 |
| 20260507104641 | 17 | 186 | 4.8 | 8.0 | 0.00 | 1.12 | 1.12 | 82 | 1014.6 |
| 20260507104137 | 17 | 169 | 3.2 | 3.2 | 0.00 | 1.12 | 1.12 | 84 | 1014.8 |
| 20260507103633 | 16 | 221 | 4.8 | 8.0 | 0.00 | 1.12 | 1.12 | 84 | 1014.6 |
| 20260507103130 | 16 | 179 | 4.8 | 8.0 | 0.00 | 1.12 | 1.12 | 85 | 1014.4 |
| 20260507102626 | 16 | 117 | 6.4 | 9.7 | 0.00 | 1.12 | 1.12 | 86 | 1014.6 |
| 20260507102123 | 16 | 139 | 4.8 | 8.0 | 0.00 | 1.12 | 1.12 | 88 | 1014.7 |
| 20260507101619 | 15 | 129 | 9.7 | 14.5 | 0.00 | 1.12 | 1.12 | 88 | 1014.5 |
| 20260507101115 | 15 | 171 | 8.0 | 12.9 | 0.00 | 1.12 | 1.12 | 88 | 1014.6 |
| 20260507100612 | 15 | 156 | 8.0 | 11.3 | 0.00 | 1.12 | 1.12 | 88 | 1014.6 |
| 20260507100110 | 15 | 172 | 8.0 | 12.9 | 0.00 | 1.12 | 1.12 | 88 | 1014.5 |
| 20260507095608 | 15 | 183 | 3.2 | 3.2 | 0.00 | 1.12 | 1.12 | 89 | 1014.6 |
| 20260507095104 | 15 | 147 | 8.0 | 11.3 | 0.00 | 1.12 | 1.12 | 89 | 1014.4 |
| 20260507094600 | 15 | 169 | 6.4 | 8.0 | 0.00 | 1.12 | 1.12 | 89 | 1014.7 |
| 20260507094057 | 15 | 152 | 4.8 | 9.7 | 0.00 | 1.12 | 1.12 | 90 | 1014.3 |
| 20260507093555 | 15 | 205 | 1.6 | 3.2 | 0.00 | 1.12 | 1.12 | 91 | 1014.3 |
| 20260507093054 | 15 | 182 | 3.2 | 4.8 | 0.00 | 1.12 | 1.12 | 92 | 1014.3 |
| 20260507092549 | 15 | 124 | 4.8 | 4.8 | 0.00 | 1.12 | 1.12 | 91 | 1014.3 |
| 20260507092046 | 15 | 127 | 4.8 | 8.0 | 0.00 | 1.12 | 1.12 | 92 | 1014.3 |
| 20260507091543 | 15 | 132 | 4.8 | 9.7 | 0.00 | 1.12 | 1.12 | 93 | 1014.3 |
| 20260507091039 | 15 | 154 | 3.2 | 9.7 | 0.00 | 1.12 | 1.12 | 93 | 1014.2 |
| 20260507090535 | 15 | 158 | 4.8 | 8.0 | 0.00 | 1.12 | 1.12 | 93 | 1014.2 |
| 20260507090032 | 15 | 158 | 8.0 | 12.9 | 0.00 | 1.12 | 1.12 | 94 | 1014.3 |
| 20260507085529 | 15 | 166 | 3.2 | 4.8 | 0.00 | 1.12 | 1.12 | 94 | 1014.2 |
| 20260507085026 | 15 | 176 | 4.8 | 4.8 | 0.00 | 1.12 | 1.12 | 94 | 1014.4 |
| 20260507084522 | 14 | 144 | 3.2 | 4.8 | 0.00 | 1.12 | 1.12 | 94 | 1014.4 |
| 20260507084020 | 14 | 195 | 3.2 | 4.8 | 0.00 | 1.12 | 1.12 | 95 | 1014.3 |
| 20260507083516 | 14 | 182 | 3.2 | 4.8 | 0.00 | 1.12 | 1.12 | 95 | 1014.2 |
| 20260507083013 | 14 | 148 | 4.8 | 8.0 | 0.00 | 1.12 | 1.12 | 95 | 1014.4 |
| 20260507082509 | 14 | 182 | 3.2 | 8.0 | 0.00 | 1.12 | 1.12 | 95 | 1014.4 |
| 20260507082005 | 14 | 173 | 4.8 | 4.8 | 0.00 | 1.12 | 1.12 | 95 | 1014.3 |
| 20260507081502 | 14 | 209 | 0.0 | 0.0 | 0.00 | 1.12 | 1.12 | 96 | 1014.0 |
| 20260507080959 | 14 | 163 | 6.4 | 8.0 | 0.00 | 1.12 | 1.12 | 96 | 1014.3 |
| 20260507080454 | 14 | 228 | 1.6 | 3.2 | 0.00 | 1.12 | 1.12 | 96 | 1014.3 |
| 20260507075950 | 14 | 136 | 1.6 | 3.2 | 0.00 | 1.12 | 1.12 | 96 | 1014.2 |
| 20260507075446 | 14 | 165 | 3.2 | 3.2 | 0.00 | 1.12 | 1.12 | 96 | 1014.3 |
| 20260507074943 | 14 | 177 | 1.6 | 3.2 | 0.00 | 1.12 | 1.12 | 96 | 1014.1 |
| 20260507074440 | 14 | 171 | 4.8 | 4.8 | 0.00 | 1.12 | 1.12 | 96 | 1014.1 |
| 20260507073938 | 13 | 119 | 4.8 | 8.0 | 0.00 | 1.12 | 1.12 | 96 | 1014.2 |
| 20260507073434 | 13 | 196 | 3.2 | 4.8 | 0.00 | 1.12 | 1.12 | 96 | 1014.0 |
| 20260507072931 | 13 | 176 | 1.6 | 3.2 | 0.00 | 1.12 | 1.12 | 96 | 1013.8 |
| 20260507072428 | 13 | 137 | 6.4 | 9.7 | 0.00 | 1.12 | 1.12 | 96 | 1014.0 |
| 20260507071926 | 13 | 191 | 4.8 | 8.0 | 0.00 | 1.12 | 1.12 | 96 | 1014.0 |
| 20260507071422 | 13 | 138 | 3.2 | 8.0 | 0.00 | 1.12 | 1.12 | 96 | 1013.8 |
| 20260507070919 | 13 | 143 | 3.2 | 3.2 | 0.00 | 1.12 | 1.12 | 96 | 1013.9 |
| 20260507070416 | 13 | 176 | 6.4 | 8.0 | 0.00 | 1.12 | 1.12 | 96 | 1013.8 |
| 20260507065913 | 13 | 190 | 3.2 | 3.2 | 0.00 | 1.12 | 1.12 | 96 | 1013.6 |
| 20260507065409 | 13 | 148 | 1.6 | 3.2 | 0.00 | 1.12 | 1.12 | 96 | 1013.6 |
| 20260507064907 | 13 | 160 | 4.8 | 8.0 | 0.00 | 1.12 | 1.12 | 96 | 1013.3 |
| 20260507064404 | 13 | 168 | 3.2 | 4.8 | 0.00 | 1.12 | 1.12 | 96 | 1013.3 |
| 20260507063857 | 13 | 193 | 6.4 | 9.7 | 0.00 | 1.12 | 1.12 | 96 | 1013.4 |
| 20260507063354 | 13 | 126 | 6.4 | 8.0 | 0.00 | 1.12 | 1.12 | 96 | 1013.4 |
| 20260507062851 | 13 | 163 | 6.4 | 8.0 | 0.00 | 1.12 | 1.12 | 96 | 1013.6 |
| 20260507062347 | 13 | 172 | 8.0 | 11.3 | 0.00 | 1.12 | 1.12 | 96 | 1013.3 |
| 20260507061845 | 13 | 184 | 1.6 | 3.2 | 0.00 | 1.12 | 1.12 | 96 | 1013.4 |
| 20260507061343 | 13 | 146 | 6.4 | 8.0 | 0.00 | 1.12 | 1.12 | 96 | 1013.2 |
| 20260507060841 | 13 | 177 | 3.2 | 4.8 | 0.00 | 1.12 | 1.12 | 96 | 1013.3 |
| 20260507060338 | 13 | 154 | 6.4 | 11.3 | 0.00 | 1.12 | 1.12 | 96 | 1013.0 |
| 20260507055835 | 13 | 173 | 4.8 | 4.8 | 0.13 | 1.12 | 1.12 | 96 | 1013.3 |
| 20260507055329 | 13 | 159 | 1.6 | 3.2 | 0.13 | 1.12 | 1.12 | 96 | 1013.3 |
| 20260507054827 | 13 | 150 | 4.8 | 8.0 | 0.00 | 1.09 | 1.09 | 96 | 1013.3 |
| 20260507054323 | 13 | 164 | 4.8 | 8.0 | 0.18 | 1.09 | 1.09 | 96 | 1013.2 |
| 20260507053820 | 13 | 188 | 4.8 | 8.0 | 0.18 | 1.09 | 1.09 | 96 | 1013.1 |
| 20260507053318 | 13 | 190 | 1.6 | 3.2 | 0.00 | 1.07 | 1.07 | 96 | 1013.2 |
| 20260507052817 | 13 | 179 | 1.6 | 1.6 | 0.00 | 1.07 | 1.07 | 96 | 1013.2 |
| 20260507052313 | 13 | 224 | 1.6 | 1.6 | 0.00 | 1.07 | 1.07 | 96 | 1013.2 |
| 20260507051811 | 13 | 173 | 3.2 | 3.2 | 0.00 | 1.07 | 1.07 | 96 | 1013.2 |
| 20260507051308 | 13 | 152 | 0.0 | 1.6 | 0.13 | 1.07 | 1.07 | 96 | 1013.0 |
| 20260507050804 | 13 | 172 | 1.6 | 3.2 | 0.13 | 1.07 | 1.07 | 96 | 1013.1 |
| 20260507050301 | 13 | 166 | 0.0 | 0.0 | 0.00 | 1.04 | 1.04 | 96 | 1012.9 |
| 20260507045758 | 13 | 177 | 0.0 | 1.6 | 0.00 | 1.04 | 1.04 | 96 | 1013.0 |
| 20260507045254 | 13 | 189 | 0.0 | 0.0 | 0.00 | 1.04 | 1.04 | 95 | 1012.8 |
| 20260507044751 | 13 | 176 | 0.0 | 0.0 | 0.61 | 1.04 | 1.04 | 95 | 1013.1 |
| 20260507044248 | 13 | 203 | 4.8 | 4.8 | 0.79 | 1.04 | 1.04 | 95 | 1012.7 |
| 20260507043744 | 13 | 150 | 1.6 | 1.6 | 0.61 | 0.99 | 0.99 | 95 | 1013.0 |
| 20260507043241 | 13 | 180 | 6.4 | 11.3 | 0.30 | 0.91 | 0.91 | 95 | 1012.6 |
| 20260507042737 | 13 | 189 | 1.6 | 3.2 | 0.18 | 0.89 | 0.89 | 95 | 1012.7 |
| 20260507042232 | 13 | 144 | 4.8 | 4.8 | 0.30 | 0.86 | 0.86 | 95 | 1012.4 |
| 20260507041730 | 13 | 195 | 3.2 | 4.8 | 0.30 | 0.86 | 0.86 | 95 | 1012.6 |
| 20260507041226 | 13 | 137 | 3.2 | 4.8 | 0.00 | 0.81 | 0.81 | 95 | 1012.4 |
| 20260507040724 | 13 | 188 | 1.6 | 4.8 | 0.30 | 0.81 | 0.81 | 95 | 1012.6 |
| 20260507040219 | 13 | 171 | 3.2 | 3.2 | 0.30 | 0.81 | 0.81 | 95 | 1012.5 |
| 20260507035716 | 13 | 153 | 6.4 | 11.3 | 0.00 | 0.76 | 0.76 | 94 | 1012.3 |
| 20260507035211 | 13 | 157 | 4.8 | 9.7 | 0.18 | 0.76 | 0.76 | 94 | 1012.5 |
| 20260507034709 | 13 | 167 | 3.2 | 4.8 | 0.18 | 0.76 | 0.76 | 94 | 1012.4 |
| 20260507034206 | 13 | 155 | 3.2 | 4.8 | 0.13 | 0.74 | 0.74 | 94 | 1012.6 |
| 20260507033704 | 13 | 190 | 3.2 | 3.2 | 0.13 | 0.74 | 0.74 | 94 | 1012.6 |
| 20260507033201 | 13 | 180 | 8.0 | 12.9 | 0.00 | 0.71 | 0.71 | 93 | 1012.5 |
| 20260507032659 | 13 | 203 | 3.2 | 3.2 | 0.00 | 0.71 | 0.71 | 93 | 1012.6 |
| 20260507032154 | 13 | 168 | 1.6 | 3.2 | 0.00 | 0.71 | 0.71 | 93 | 1012.6 |
| 20260507031651 | 13 | 162 | 0.0 | 1.6 | 0.00 | 0.71 | 0.71 | 93 | 1012.6 |
| 20260507031148 | 13 | 155 | 6.4 | 11.3 | 1.37 | 0.71 | 0.71 | 92 | 1012.7 |
| 20260507030644 | 14 | 154 | 3.2 | 4.8 | 2.77 | 0.71 | 0.71 | 92 | 1012.8 |
| 20260507030143 | 14 | 173 | 1.6 | 3.2 | 2.77 | 0.56 | 0.56 | 91 | 1012.8 |
| 20260507025639 | 14 | 142 | 0.0 | 1.6 | 1.37 | 0.23 | 0.23 | 90 | 1012.8 |
| 20260507025136 | 14 | 183 | 0.0 | 0.0 | 0.43 | 0.08 | 0.08 | 90 | 1012.5 |
| 20260507024634 | 14 | 173 | 0.0 | 0.0 | 0.00 | 0.00 | 0.00 | 90 | 1012.6 |
| 20260507024131 | 14 | 172 | 0.0 | 0.0 | 0.00 | 0.00 | 0.00 | 89 | 1012.7 |
| 20260507023626 | 14 | 177 | 0.0 | 0.0 | 0.00 | 0.00 | 0.00 | 89 | 1012.5 |
| 20260507023125 | 14 | 195 | 1.6 | 1.6 | 0.00 | 0.00 | 0.00 | 89 | 1012.2 |
| 20260507022621 | 14 | 151 | 3.2 | 4.8 | 0.00 | 0.00 | 0.00 | 88 | 1012.2 |
| 20260507022116 | 14 | 178 | 0.0 | 1.6 | 0.00 | 0.00 | 0.00 | 88 | 1012.1 |
| 20260507021613 | 14 | 173 | 0.0 | 1.6 | 0.00 | 0.00 | 0.00 | 87 | 1012.2 |
| 20260507021109 | 15 | 147 | 0.0 | 1.6 | 0.00 | 0.00 | 0.00 | 87 | 1012.3 |
| 20260507020607 | 15 | 174 | 4.8 | 8.0 | 0.00 | 0.00 | 0.00 | 86 | 1012.3 |
| 20260507020103 | 15 | 112 | 6.4 | 9.7 | 0.00 | 0.00 | 0.00 | 85 | 1012.4 |
| 20260507015602 | 15 | 153 | 3.2 | 4.8 | 0.00 | 0.00 | 0.00 | 84 | 1012.5 |
| 20260507015059 | 15 | 136 | 6.4 | 12.9 | 0.00 | 0.00 | 0.00 | 84 | 1012.6 |
| 20260507014555 | 15 | 196 | 4.8 | 11.3 | 0.00 | 0.00 | 0.00 | 83 | 1012.4 |
| 20260507014051 | 15 | 160 | 1.6 | 1.6 | 0.00 | 0.00 | 0.00 | 82 | 1012.5 |
| 20260507013548 | 15 | 128 | 6.4 | 11.3 | 0.00 | 0.00 | 0.00 | 82 | 1012.3 |
| 20260507013045 | 15 | 190 | 4.8 | 9.7 | 0.00 | 0.00 | 0.00 | 81 | 1012.5 |
| 20260507012542 | 15 | 146 | 1.6 | 4.8 | 0.00 | 0.00 | 0.00 | 80 | 1012.3 |
| 20260507012038 | 15 | 159 | 3.2 | 4.8 | 0.00 | 0.00 | 0.00 | 80 | 1012.2 |
| 20260507011535 | 15 | 147 | 11.3 | 14.5 | 0.00 | 0.00 | 0.00 | 79 | 1012.2 |
| 20260507011026 | 15 | 194 | 8.0 | 12.9 | 0.00 | 0.00 | 0.00 | 79 | 1012.2 |
| 20260507010521 | 15 | 140 | 6.4 | 9.7 | 0.00 | 0.00 | 0.00 | 78 | 1012.1 |
| 20260507010018 | 15 | 187 | 4.8 | 9.7 | 0.00 | 0.00 | 0.00 | 78 | 1012.4 |
| 20260507005515 | 15 | 182 | 3.2 | 3.2 | 0.00 | 0.00 | 0.00 | 77 | 1012.2 |
| 20260507005011 | 15 | 150 | 4.8 | 4.8 | 0.00 | 0.00 | 0.00 | 78 | 1012.1 |
| 20260507004508 | 15 | 129 | 4.8 | 4.8 | 0.00 | 0.00 | 0.00 | 77 | 1012.2 |
| 20260507004006 | 15 | 178 | 1.6 | 1.6 | 0.00 | 0.00 | 0.00 | 76 | 1012.2 |
| 20260507003501 | 15 | 148 | 8.0 | 9.7 | 0.00 | 0.00 | 0.00 | 76 | 1012.2 |
| 20260507002955 | 15 | 164 | 3.2 | 8.0 | 0.00 | 0.00 | 0.00 | 75 | 1012.4 |
| 20260507002452 | 15 | 186 | 3.2 | 4.8 | 0.00 | 0.00 | 0.00 | 74 | 1012.4 |
| 20260507001944 | 15 | 189 | 6.4 | 11.3 | 0.00 | 0.00 | 0.00 | 74 | 1012.6 |
| 20260507001440 | 15 | 141 | 4.8 | 4.8 | 0.00 | 0.00 | 0.00 | 73 | 1012.5 |
| 20260507000938 | 15 | 166 | 6.4 | 8.0 | 0.00 | 0.00 | 0.00 | 74 | 1012.4 |
| 20260507000435 | 15 | 136 | 4.8 | 4.8 | 0.00 | 0.00 | 0.00 | 74 | 1012.5 |
| 20260506235929 | 15 | 136 | 9.7 | 17.7 | 0.00 | 0.00 | 0.00 | 75 | 1012.5 |
| 20260506235427 | 15 | 190 | 4.8 | 9.7 | 0.00 | 0.00 | 0.00 | 75 | 1012.7 |
| 20260506234921 | 15 | 194 | 3.2 | 3.2 | 0.00 | 0.00 | 0.00 | 75 | 1012.6 |
| 20260506234420 | 15 | 144 | 4.8 | 9.7 | 0.00 | 0.00 | 0.00 | 75 | 1012.7 |
| 20260506233917 | 15 | 182 | 8.0 | 11.3 | 0.00 | 0.00 | 0.00 | 75 | 1012.7 |
| 20260506233414 | 15 | 120 | 8.0 | 11.3 | 0.00 | 0.00 | 0.00 | 75 | 1012.6 |
| 20260506232910 | 15 | 146 | 4.8 | 9.7 | 0.00 | 0.00 | 0.00 | 75 | 1012.9 |
| 20260506232406 | 15 | 173 | 8.0 | 12.9 | 0.00 | 0.00 | 0.00 | 75 | 1012.7 |
| 20260506231902 | 15 | 189 | 8.0 | 11.3 | 0.00 | 0.00 | 0.00 | 76 | 1012.8 |
| 20260506231400 | 15 | 150 | 3.2 | 8.0 | 0.00 | 0.00 | 0.00 | 76 | 1013.0 |
| 20260506230857 | 15 | 135 | 3.2 | 3.2 | 0.00 | 0.00 | 0.00 | 75 | 1013.0 |
| 20260506230354 | 15 | 178 | 4.8 | 8.0 | 0.00 | 0.00 | 0.00 | 75 | 1012.9 |
| 20260506225850 | 15 | 184 | 4.8 | 9.7 | 0.00 | 0.00 | 0.00 | 75 | 1012.8 |
| 20260506225348 | 15 | 154 | 8.0 | 11.3 | 0.00 | 0.00 | 0.00 | 74 | 1012.6 |
| 20260506224844 | 15 | 183 | 8.0 | 22.5 | 0.00 | 0.00 | 0.00 | 75 | 1012.7 |
| 20260506224342 | 15 | 214 | 4.8 | 8.0 | 0.00 | 0.00 | 0.00 | 75 | 1012.8 |
| 20260506223838 | 15 | 228 | 6.4 | 11.3 | 0.00 | 0.00 | 0.00 | 76 | 1012.8 |
| 20260506223333 | 15 | 164 | 4.8 | 8.0 | 0.00 | 0.00 | 0.00 | 76 | 1013.0 |
| 20260506222831 | 15 | 178 | 9.7 | 12.9 | 0.00 | 0.00 | 0.00 | 76 | 1012.9 |
| 20260506222326 | 15 | 154 | 6.4 | 9.7 | 0.00 | 0.00 | 0.00 | 76 | 1012.9 |
| 20260506221825 | 15 | 158 | 6.4 | 11.3 | 0.00 | 0.00 | 0.00 | 75 | 1012.9 |
| 20260506221322 | 15 | 149 | 8.0 | 11.3 | 0.00 | 0.00 | 0.00 | 75 | 1012.7 |
| 20260506220819 | 15 | 131 | 12.9 | 16.1 | 0.00 | 0.00 | 0.00 | 74 | 1012.7 |
| 20260506220314 | 15 | 128 | 12.9 | 20.9 | 0.00 | 0.00 | 0.00 | 74 | 1012.9 |
| 20260506215811 | 15 | 169 | 6.4 | 8.0 | 0.00 | 0.97 | 0.97 | 74 | 1012.8 |
| 20260506215307 | 15 | 178 | 4.8 | 9.7 | 0.00 | 0.97 | 0.97 | 73 | 1012.7 |
| 20260506214803 | 15 | 117 | 9.7 | 12.9 | 0.00 | 0.97 | 0.97 | 73 | 1012.6 |
| 20260506214300 | 15 | 125 | 11.3 | 24.1 | 0.00 | 0.97 | 0.97 | 74 | 1012.6 |
| 20260506213758 | 15 | 123 | 12.9 | 20.9 | 0.00 | 0.97 | 0.97 | 76 | 1012.8 |
| 20260506213254 | 15 | 207 | 4.8 | 8.0 | 0.00 | 0.97 | 0.97 | 76 | 1012.8 |
| 20260506212752 | 15 | 191 | 12.9 | 17.7 | 0.00 | 0.97 | 0.97 | 76 | 1012.7 |
| 20260506212248 | 15 | 148 | 8.0 | 11.3 | 0.00 | 0.97 | 0.97 | 77 | 1012.8 |
| 20260506211743 | 15 | 117 | 4.8 | 9.7 | 0.00 | 0.97 | 0.97 | 78 | 1012.7 |
| 20260506211240 | 15 | 209 | 8.0 | 9.7 | 0.00 | 0.97 | 0.97 | 77 | 1012.4 |
| 20260506210737 | 15 | 156 | 6.4 | 11.3 | 0.00 | 0.97 | 0.97 | 78 | 1012.8 |
| 20260506210233 | 15 | 168 | 11.3 | 14.5 | 0.00 | 0.97 | 0.97 | 79 | 1012.6 |
| 20260506205730 | 15 | 151 | 11.3 | 17.7 | 0.00 | 0.97 | 0.97 | 80 | 1012.6 |
| 20260506205225 | 15 | 194 | 4.8 | 8.0 | 0.00 | 0.97 | 0.97 | 79 | 1012.6 |
| 20260506204718 | 15 | 118 | 8.0 | 12.9 | 0.00 | 0.97 | 0.97 | 80 | 1012.5 |
| 20260506204215 | 15 | 152 | 8.0 | 12.9 | 0.00 | 0.97 | 0.97 | 79 | 1012.3 |
| 20260506203713 | 15 | 178 | 6.4 | 11.3 | 0.00 | 0.97 | 0.97 | 79 | 1012.5 |
| 20260506203210 | 15 | 197 | 9.7 | 17.7 | 0.00 | 0.97 | 0.97 | 80 | 1012.4 |
| 20260506202708 | 15 | 148 | 4.8 | 8.0 | 0.00 | 0.97 | 0.97 | 80 | 1012.4 |
| 20260506202203 | 15 | 119 | 9.7 | 17.7 | 0.00 | 0.97 | 0.97 | 80 | 1012.6 |
| 20260506201701 | 15 | 177 | 11.3 | 20.9 | 0.00 | 0.97 | 0.97 | 80 | 1012.4 |
| 20260506201156 | 15 | 191 | 4.8 | 4.8 | 0.00 | 0.97 | 0.97 | 79 | 1012.4 |
| 20260506200654 | 15 | 155 | 9.7 | 14.5 | 0.00 | 0.97 | 0.97 | 80 | 1012.5 |
| 20260506200150 | 15 | 121 | 14.5 | 17.7 | 0.00 | 0.97 | 0.97 | 80 | 1012.3 |
| 20260506195647 | 15 | 188 | 6.4 | 11.3 | 0.00 | 0.97 | 0.97 | 80 | 1012.2 |
| 20260506195143 | 15 | 135 | 14.5 | 22.5 | 0.00 | 0.97 | 0.97 | 81 | 1012.2 |
| 20260506194641 | 15 | 185 | 14.5 | 20.9 | 0.00 | 0.97 | 0.97 | 81 | 1012.1 |
| 20260506194137 | 15 | 149 | 4.8 | 9.7 | 0.00 | 0.97 | 0.97 | 81 | 1012.1 |
| 20260506193635 | 15 | 113 | 8.0 | 12.9 | 0.00 | 0.97 | 0.97 | 82 | 1012.3 |
| 20260506193132 | 15 | 205 | 9.7 | 14.5 | 0.00 | 0.97 | 0.97 | 82 | 1012.1 |
| 20260506192628 | 15 | 175 | 9.7 | 14.5 | 0.00 | 0.97 | 0.97 | 83 | 1012.1 |
| 20260506192124 | 15 | 241 | 11.3 | 16.1 | 0.00 | 0.97 | 0.97 | 83 | 1012.1 |
| 20260506191621 | 15 | 144 | 8.0 | 12.9 | 0.00 | 0.97 | 0.97 | 83 | 1012.2 |
| 20260506191117 | 15 | 164 | 9.7 | 12.9 | 0.00 | 0.97 | 0.97 | 84 | 1012.2 |
| 20260506190615 | 15 | 156 | 6.4 | 11.3 | 0.00 | 0.97 | 0.97 | 84 | 1012.2 |
| 20260506190111 | 15 | 130 | 6.4 | 8.0 | 0.00 | 0.97 | 0.97 | 83 | 1011.9 |
| 20260506185609 | 15 | 221 | 9.7 | 14.5 | 0.00 | 0.97 | 0.97 | 84 | 1011.9 |
| 20260506185105 | 15 | 118 | 11.3 | 16.1 | 0.00 | 0.97 | 0.97 | 84 | 1011.8 |
| 20260506184602 | 15 | 153 | 8.0 | 11.3 | 0.00 | 0.97 | 0.97 | 84 | 1011.7 |
| 20260506184100 | 15 | 156 | 11.3 | 20.9 | 0.00 | 0.97 | 0.97 | 84 | 1011.6 |
| 20260506183556 | 15 | 152 | 14.5 | 17.7 | 0.00 | 0.97 | 0.97 | 85 | 1011.8 |
| 20260506183052 | 15 | 157 | 16.1 | 22.5 | 0.00 | 0.97 | 0.97 | 85 | 1011.6 |
| 20260506182550 | 15 | 167 | 11.3 | 16.1 | 0.00 | 0.97 | 0.97 | 86 | 1011.3 |
| 20260506182047 | 15 | 192 | 9.7 | 14.5 | 0.00 | 0.97 | 0.97 | 86 | 1011.7 |
| 20260506181545 | 15 | 191 | 4.8 | 11.3 | 0.00 | 0.97 | 0.97 | 86 | 1011.4 |
| 20260506181041 | 15 | 196 | 11.3 | 14.5 | 0.00 | 0.97 | 0.97 | 87 | 1011.2 |
| 20260506180538 | 15 | 134 | 4.8 | 8.0 | 0.00 | 0.97 | 0.97 | 87 | 1011.3 |
| 20260506180035 | 15 | 162 | 9.7 | 12.9 | 0.00 | 0.97 | 0.97 | 88 | 1011.3 |
| 20260506175531 | 15 | 257 | 11.3 | 20.9 | 0.00 | 0.97 | 0.97 | 87 | 1011.3 |
| 20260506175027 | 15 | 131 | 16.1 | 22.5 | 0.00 | 0.97 | 0.97 | 87 | 1011.7 |
| 20260506174526 | 15 | 173 | 4.8 | 8.0 | 0.00 | 0.97 | 0.97 | 88 | 1011.3 |
| 20260506174022 | 15 | 155 | 11.3 | 16.1 | 0.00 | 0.97 | 0.97 | 88 | 1011.3 |
| 20260506173520 | 15 | 143 | 11.3 | 20.9 | 0.00 | 0.97 | 0.97 | 88 | 1011.7 |
| 20260506173017 | 15 | 150 | 14.5 | 20.9 | 0.00 | 0.97 | 0.97 | 88 | 1011.8 |
| 20260506172514 | 15 | 189 | 6.4 | 11.3 | 0.00 | 0.97 | 0.97 | 89 | 1011.4 |
| 20260506172010 | 15 | 136 | 6.4 | 8.0 | 0.00 | 0.97 | 0.97 | 89 | 1011.4 |
| 20260506171508 | 15 | 144 | 8.0 | 12.9 | 0.00 | 0.97 | 0.97 | 90 | 1011.8 |
| 20260506171005 | 15 | 186 | 9.7 | 12.9 | 0.00 | 0.97 | 0.97 | 90 | 1011.4 |
| 20260506170501 | 15 | 130 | 6.4 | 11.3 | 0.00 | 0.97 | 0.97 | 90 | 1011.4 |
| 20260506165954 | 15 | 148 | 8.0 | 14.5 | 0.00 | 0.97 | 0.97 | 90 | 1011.6 |
| 20260506165452 | 15 | 191 | 6.4 | 11.3 | 0.00 | 0.97 | 0.97 | 90 | 1011.6 |
| 20260506164942 | 15 | 150 | 9.7 | 12.9 | 0.00 | 0.97 | 0.97 | 90 | 1011.7 |
| 20260506164439 | 15 | 213 | 8.0 | 11.3 | 0.00 | 0.97 | 0.97 | 90 | 1011.7 |
| 20260506163937 | 15 | 159 | 4.8 | 9.7 | 0.00 | 0.97 | 0.97 | 90 | 1011.6 |
| 20260506163432 | 15 | 118 | 3.2 | 3.2 | 0.00 | 0.97 | 0.97 | 90 | 1011.7 |
| 20260506162927 | 15 | 184 | 8.0 | 11.3 | 0.00 | 0.97 | 0.97 | 90 | 1011.6 |